createdAt,value
2023-02-12T00:00:22.917Z,102434.25
2023-02-12T00:01:24.602Z,102427.81
2023-02-12T00:02:26.208Z,102428.69
2023-02-12T00:03:27.733Z,102429.75
2023-02-12T00:04:29.214Z,102427.81
2023-02-12T00:05:31.219Z,102436.81
2023-02-12T00:06:32.697Z,102436.81
2023-02-12T00:07:34.133Z,102434.03
2023-02-12T00:08:35.735Z,102435.75
2023-02-12T00:09:37.249Z,102432.31
2023-02-12T00:10:43.135Z,102431.69
2023-02-12T00:11:44.671Z,102431.69
2023-02-12T00:12:46.118Z,102427.19
2023-02-12T00:13:47.650Z,102429.28
2023-02-12T00:14:49.221Z,102426.50
2023-02-12T00:15:50.770Z,102426.72
2023-02-12T00:16:52.364Z,102429.50
2023-02-12T00:17:53.828Z,102432.06
2023-02-12T00:18:55.755Z,102426.50
2023-02-12T00:19:57.290Z,102418.13
2023-02-12T00:20:59.272Z,102422.63
2023-02-12T00:22:00.800Z,102408.69
2023-02-12T00:23:02.254Z,102418.81
2023-02-12T00:24:03.804Z,102417.75
2023-02-12T00:25:05.343Z,102427.81
2023-02-12T00:26:07.600Z,102423.31
2023-02-12T00:27:09.090Z,102417.53
2023-02-12T00:28:10.676Z,102411.09
2023-02-12T00:29:12.122Z,102426.97
2023-02-12T00:30:13.662Z,102414.97
2023-02-12T00:31:16.265Z,102418.81
2023-02-12T00:32:21.012Z,102423.53
2023-02-12T00:33:22.483Z,102429.09
2023-02-12T00:34:24.046Z,102421.78
2023-02-12T00:35:25.550Z,102426.31
2023-02-12T00:36:27.520Z,102436.56
2023-02-12T00:37:29.010Z,102428.03
2023-02-12T00:38:30.465Z,102424.38
2023-02-12T00:39:31.958Z,102424.38
2023-02-12T00:40:33.512Z,102424.38
2023-02-12T00:41:35.013Z,102426.09
2023-02-12T00:42:36.606Z,102429.97
2023-02-12T00:43:38.145Z,102430.81
2023-02-12T00:44:39.642Z,102433.59
2023-02-12T00:45:41.094Z,102431.69
2023-02-12T00:46:42.670Z,102433.38
2023-02-12T00:47:44.195Z,102434.47
2023-02-12T00:48:45.757Z,102434.25
2023-02-12T00:49:47.268Z,102429.53
2023-02-12T00:50:48.707Z,102431.25
2023-02-12T00:51:50.309Z,102425.69
2023-02-12T00:52:51.767Z,102432.97
2023-02-12T00:53:53.287Z,102429.09
2023-02-12T00:54:54.922Z,102432.97
2023-02-12T00:55:56.795Z,102438.31
2023-02-12T00:56:59.045Z,102441.75
2023-02-12T00:58:04.008Z,102450.97
2023-02-12T00:59:05.497Z,102447.13
2023-02-12T01:00:07.366Z,102450.97
2023-02-12T01:01:10.035Z,102451.84
2023-02-12T01:02:11.574Z,102446.25
2023-02-12T01:03:13.138Z,102438.97
2023-02-12T01:04:14.676Z,102444.56
2023-02-12T01:05:16.191Z,102440.91
2023-02-12T01:06:19.061Z,102438.97
2023-02-12T01:07:21.856Z,102441.97
2023-02-12T01:08:23.937Z,102439.41
2023-02-12T01:09:25.523Z,102441.31
2023-02-12T01:10:27.502Z,102439.63
2023-02-12T01:11:29.066Z,102448.84
2023-02-12T01:12:30.578Z,102444.97
2023-02-12T01:13:32.113Z,102442.41
2023-02-12T01:14:35.425Z,102444.13
2023-02-12T01:15:38.509Z,102448.63
2023-02-12T01:16:40.347Z,102440.25
2023-02-12T01:17:41.938Z,102443.03
2023-02-12T01:18:43.598Z,102440.25
2023-02-12T01:19:45.057Z,102444.75
2023-02-12T01:20:46.599Z,102446.47
2023-02-12T01:21:48.086Z,102453.13
2023-02-12T01:22:49.730Z,102444.56
2023-02-12T01:23:51.215Z,102443.69
2023-02-12T01:24:52.670Z,102451.19
2023-02-12T01:25:54.639Z,102441.97
2023-02-12T01:26:56.464Z,102442.84
2023-02-12T01:27:57.973Z,102441.13
2023-02-12T01:29:01.387Z,102441.31
2023-02-12T01:30:03.754Z,102445.84
2023-02-12T01:31:11.573Z,102443.03
2023-02-12T01:32:13.208Z,102451.41
2023-02-12T01:33:14.780Z,102449.69
2023-02-12T01:34:16.477Z,102437.69
2023-02-12T01:35:17.982Z,102438.75
2023-02-12T01:36:19.527Z,102439.81
2023-02-12T01:37:23.077Z,102438.97
2023-02-12T01:38:24.529Z,102439.81
2023-02-12T01:39:26.052Z,102435.09
2023-02-12T01:40:27.562Z,102435.97
2023-02-12T01:41:30.214Z,102437.91
2023-02-12T01:42:31.750Z,102432.31
2023-02-12T01:43:36.776Z,102432.09
2023-02-12T01:44:39.713Z,102425.03
2023-02-12T01:45:41.265Z,102430.41
2023-02-12T01:46:43.869Z,102432.97
2023-02-12T01:47:45.466Z,102425.88
2023-02-12T01:48:46.923Z,102426.75
2023-02-12T01:49:48.442Z,102427.59
2023-02-12T01:50:49.982Z,102435.97
2023-02-12T01:51:55.593Z,102425.69
2023-02-12T01:52:57.459Z,102427.41
2023-02-12T01:53:59.534Z,102433.81
2023-02-12T01:55:01.780Z,102427.19
2023-02-12T01:56:03.467Z,102431.69
2023-02-12T01:57:05.400Z,102424.19
2023-02-12T01:58:06.918Z,102426.75
2023-02-12T01:59:08.435Z,102427.63
2023-02-12T02:00:11.011Z,102427.63
2023-02-12T02:01:18.906Z,102423.97
2023-02-12T02:02:20.513Z,102415.59
2023-02-12T02:03:23.376Z,102425.91
2023-02-12T02:04:26.917Z,102431.47
2023-02-12T02:05:48.083Z,102426.97
2023-02-12T02:06:50.955Z,102435.53
2023-02-12T02:07:52.627Z,102423.53
2023-02-12T02:08:54.864Z,102428.03
2023-02-12T02:09:56.727Z,102429.09
2023-02-12T02:10:58.171Z,102423.53
2023-02-12T02:12:19.001Z,102420.97
2023-02-12T02:13:39.269Z,102417.09
2023-02-12T02:14:40.779Z,102418.81
2023-02-12T02:15:42.730Z,102427.19
2023-02-12T02:16:46.310Z,102422.69
2023-02-12T02:18:01.209Z,102424.59
2023-02-12T02:19:03.258Z,102425.69
2023-02-12T02:20:19.626Z,102420.97
2023-02-12T02:21:27.269Z,102423.75
2023-02-12T02:22:31.801Z,102426.75
2023-02-12T02:23:52.285Z,102423.97
2023-02-12T02:25:07.741Z,102422.25
2023-02-12T02:26:27.468Z,102418.38
2023-02-12T02:27:47.698Z,102423.97
2023-02-12T02:29:15.320Z,102419.25
2023-02-12T02:30:19.731Z,102419.03
2023-02-12T02:31:31.116Z,102423.53
2023-02-12T02:32:34.985Z,102419.03
2023-02-12T02:33:38.058Z,102416.88
2023-02-12T02:35:14.907Z,102421.59
2023-02-12T02:36:21.161Z,102413.25
2023-02-12T02:37:41.031Z,102414.09
2023-02-12T02:38:50.737Z,102413.03
2023-02-12T02:39:53.062Z,102413.03
2023-02-12T02:41:02.795Z,102405.53
2023-02-12T02:42:04.280Z,102416.69
2023-02-12T02:43:07.323Z,102411.97
2023-02-12T02:44:10.728Z,102413.69
2023-02-12T02:45:25.989Z,102419.25
2023-02-12T02:46:41.303Z,102419.25
2023-02-12T02:47:51.433Z,102418.19
2023-02-12T02:48:53.834Z,102419.94
2023-02-12T02:49:56.543Z,102418.19
2023-02-12T02:50:59.651Z,102416.25
2023-02-12T02:52:02.094Z,102425.50
2023-02-12T02:53:07.598Z,102416.94
2023-02-12T02:54:13.203Z,102421.66
2023-02-12T02:55:15.430Z,102413.28
2023-02-12T02:56:17.804Z,102407.50
2023-02-12T02:57:26.358Z,102417.78
2023-02-12T02:58:38.128Z,102409.44
2023-02-12T02:59:41.808Z,102412.00
2023-02-12T03:00:44.437Z,102415.84
2023-02-12T03:01:51.059Z,102420.56
2023-02-12T03:02:54.289Z,102415.84
2023-02-12T03:04:01.321Z,102415.00
2023-02-12T03:05:23.066Z,102418.44
2023-02-12T03:06:24.578Z,102421.00
2023-02-12T03:07:27.884Z,102421.00
2023-02-12T03:08:34.692Z,102423.56
2023-02-12T03:09:38.001Z,102412.66
2023-02-12T03:10:46.089Z,102408.13
2023-02-12T03:11:47.593Z,102409.84
2023-02-12T03:12:49.052Z,102404.50
2023-02-12T03:14:01.772Z,102408.13
2023-02-12T03:15:05.551Z,102420.38
2023-02-12T03:16:09.210Z,102415.84
2023-02-12T03:17:13.056Z,102425.28
2023-02-12T03:18:20.110Z,102415.00
2023-02-12T03:19:22.921Z,102415.84
2023-02-12T03:20:29.265Z,102416.94
2023-02-12T03:21:36.466Z,102420.56
2023-02-12T03:22:39.609Z,102415.00
2023-02-12T03:23:42.938Z,102413.06
2023-02-12T03:24:45.275Z,102412.22
2023-02-12T03:25:49.429Z,102416.72
2023-02-12T03:26:52.376Z,102410.28
2023-02-12T03:27:59.783Z,102411.13
2023-02-12T03:29:01.280Z,102418.44
2023-02-12T03:30:04.037Z,102412.00
2023-02-12T03:31:24.749Z,102414.56
2023-02-12T03:32:32.096Z,102421.22
2023-02-12T03:33:42.660Z,102412.84
2023-02-12T03:34:44.115Z,102411.13
2023-02-12T03:36:01.890Z,102419.50
2023-02-12T03:37:05.425Z,102415.84
2023-02-12T03:38:19.972Z,102415.00
2023-02-12T03:39:30.411Z,102414.34
2023-02-12T03:40:35.425Z,102420.97
2023-02-12T03:41:50.382Z,102408.97
2023-02-12T03:42:59.273Z,102409.81
2023-02-12T03:44:23.789Z,102419.03
2023-02-12T03:45:34.054Z,102414.34
2023-02-12T03:46:43.159Z,102409.63
2023-02-12T03:47:46.627Z,102412.59
2023-02-12T03:49:00.047Z,102413.69
2023-02-12T03:50:13.640Z,102415.41
2023-02-12T03:51:15.088Z,102411.97
2023-02-12T03:52:16.516Z,102411.75
2023-02-12T03:53:18.046Z,102407.03
2023-02-12T03:54:20.122Z,102396.09
2023-02-12T03:55:21.572Z,102410.69
2023-02-12T03:56:27.165Z,102417.16
2023-02-12T03:57:31.443Z,102417.16
2023-02-12T03:58:33.103Z,102418.00
2023-02-12T03:59:35.149Z,102423.56
2023-02-12T04:00:37.341Z,102412.44
2023-02-12T04:01:38.966Z,102416.06
2023-02-12T04:02:41.153Z,102417.78
2023-02-12T04:03:42.659Z,102410.28
2023-02-12T04:04:44.335Z,102416.72
2023-02-12T04:05:45.892Z,102419.50
2023-02-12T04:06:47.869Z,102416.72
2023-02-12T04:07:49.541Z,102420.38
2023-02-12T04:08:51.024Z,102422.28
2023-02-12T04:09:52.497Z,102427.88
2023-02-12T04:11:00.841Z,102427.88
2023-02-12T04:12:02.315Z,102430.66
2023-02-12T04:13:19.475Z,102429.59
2023-02-12T04:14:26.918Z,102428.72
2023-02-12T04:15:32.258Z,102428.72
2023-02-12T04:16:38.108Z,102424.00
2023-02-12T04:17:58.801Z,102426.78
2023-02-12T04:19:00.477Z,102431.31
2023-02-12T04:20:09.847Z,102436.22
2023-02-12T04:21:20.705Z,102441.59
2023-02-12T04:22:34.361Z,102425.94
2023-02-12T04:23:54.458Z,102436.88
2023-02-12T04:24:55.907Z,102441.38
2023-02-12T04:25:58.279Z,102433.88
2023-02-12T04:27:02.751Z,102447.59
2023-02-12T04:28:04.223Z,102443.75
2023-02-12T04:29:26.003Z,102432.59
2023-02-12T04:30:44.215Z,102437.31
2023-02-12T04:31:49.725Z,102438.16
2023-02-12T04:32:52.778Z,102440.75
2023-02-12T04:33:58.807Z,102437.94
2023-02-12T04:35:06.313Z,102440.75
2023-02-12T04:36:15.792Z,102451.88
2023-02-12T04:37:18.229Z,102439.03
2023-02-12T04:38:21.754Z,102439.88
2023-02-12T04:39:24.311Z,102440.94
2023-02-12T04:40:25.767Z,102433.44
2023-02-12T04:41:27.306Z,102449.31
2023-02-12T04:42:28.800Z,102439.03
2023-02-12T04:43:31.029Z,102438.16
2023-02-12T04:44:33.752Z,102446.53
2023-02-12T04:45:35.430Z,102442.88
2023-02-12T04:46:36.915Z,102443.75
2023-02-12T04:47:38.502Z,102437.31
2023-02-12T04:48:49.129Z,102440.94
2023-02-12T04:49:50.713Z,102447.38
2023-02-12T04:50:52.160Z,102443.75
2023-02-12T04:51:53.631Z,102443.75
2023-02-12T04:52:55.110Z,102445.66
2023-02-12T04:53:56.580Z,102446.53
2023-02-12T04:54:58.086Z,102448.47
2023-02-12T04:55:59.563Z,102449.31
2023-02-12T04:57:01.087Z,102447.59
2023-02-12T04:58:02.603Z,102453.16
2023-02-12T04:59:04.237Z,102449.75
2023-02-12T05:00:06.244Z,102443.09
2023-02-12T05:01:09.026Z,102445.03
2023-02-12T05:02:10.510Z,102442.03
2023-02-12T05:03:11.997Z,102443.31
2023-02-12T05:04:13.917Z,102440.31
2023-02-12T05:05:15.541Z,102446.09
2023-02-12T05:06:17.034Z,102443.53
2023-02-12T05:07:18.503Z,102440.72
2023-02-12T05:08:19.959Z,102443.31
2023-02-12T05:09:21.455Z,102435.16
2023-02-12T05:10:22.953Z,102439.00
2023-02-12T05:11:24.411Z,102439.00
2023-02-12T05:12:25.896Z,102441.81
2023-02-12T05:13:27.393Z,102439.88
2023-02-12T05:14:29.208Z,102438.16
2023-02-12T05:15:30.722Z,102428.94
2023-02-12T05:16:32.210Z,102434.50
2023-02-12T05:17:33.653Z,102437.31
2023-02-12T05:18:35.237Z,102432.59
2023-02-12T05:19:36.721Z,102437.31
2023-02-12T05:20:38.497Z,102436.44
2023-02-12T05:21:39.952Z,102435.59
2023-02-12T05:22:41.847Z,102433.88
2023-02-12T05:23:43.335Z,102428.28
2023-02-12T05:24:45.384Z,102427.22
2023-02-12T05:25:46.880Z,102429.34
2023-02-12T05:26:48.601Z,102436.84
2023-02-12T05:27:50.080Z,102432.13
2023-02-12T05:28:51.543Z,102435.97
2023-02-12T05:29:53.030Z,102430.41
2023-02-12T05:30:54.564Z,102435.97
2023-02-12T05:31:56.090Z,102434.25
2023-02-12T05:32:57.661Z,102443.47
2023-02-12T05:33:59.340Z,102435.97
2023-02-12T05:35:00.880Z,102434.91
2023-02-12T05:36:06.070Z,102443.28
2023-02-12T05:37:07.610Z,102440.47
2023-02-12T05:38:09.091Z,102437.69
2023-02-12T05:39:10.557Z,102448.84
2023-02-12T05:40:12.280Z,102432.97
2023-02-12T05:41:16.531Z,102428.69
2023-02-12T05:42:18.059Z,102430.63
2023-02-12T05:43:19.544Z,102434.25
2023-02-12T05:44:21.044Z,102434.25
2023-02-12T05:45:27.828Z,102434.47
2023-02-12T05:46:29.373Z,102436.41
2023-02-12T05:47:30.847Z,102436.41
2023-02-12T05:48:32.319Z,102437.47
2023-02-12T05:49:34.607Z,102432.09
2023-02-12T05:50:36.464Z,102435.09
2023-02-12T05:51:42.624Z,102437.91
2023-02-12T05:52:44.084Z,102439.81
2023-02-12T05:53:45.537Z,102438.97
2023-02-12T05:54:49.102Z,102435.09
2023-02-12T05:55:50.599Z,102448.19
2023-02-12T05:56:52.106Z,102437.25
2023-02-12T05:57:53.632Z,102439.34
2023-02-12T05:58:58.866Z,102444.06
2023-02-12T06:00:00.354Z,102447.06
2023-02-12T06:01:01.813Z,102438.72
2023-02-12T06:02:03.327Z,102439.78
2023-02-12T06:03:04.801Z,102438.06
2023-02-12T06:04:08.015Z,102438.06
2023-02-12T06:05:09.637Z,102438.06
2023-02-12T06:06:11.276Z,102437.41
2023-02-12T06:07:12.766Z,102440.19
2023-02-12T06:08:14.235Z,102439.13
2023-02-12T06:09:15.767Z,102443.00
2023-02-12T06:10:17.296Z,102441.91
2023-02-12T06:11:19.419Z,102445.78
2023-02-12T06:12:21.182Z,102447.50
2023-02-12T06:13:22.675Z,102430.78
2023-02-12T06:14:24.213Z,102450.06
2023-02-12T06:15:25.697Z,102445.78
2023-02-12T06:16:27.528Z,102445.78
2023-02-12T06:17:29.083Z,102449.63
2023-02-12T06:18:30.581Z,102446.84
2023-02-12T06:19:32.066Z,102448.78
2023-02-12T06:20:33.542Z,102442.34
2023-02-12T06:21:35.083Z,102443.41
2023-02-12T06:22:38.301Z,102448.97
2023-02-12T06:23:39.774Z,102441.69
2023-02-12T06:24:41.257Z,102443.63
2023-02-12T06:25:42.710Z,102451.97
2023-02-12T06:26:44.186Z,102453.91
2023-02-12T06:27:45.737Z,102442.94
2023-02-12T06:28:47.259Z,102453.44
2023-02-12T06:29:48.712Z,102458.16
2023-02-12T06:30:50.240Z,102459.88
2023-02-12T06:31:51.874Z,102452.59
2023-02-12T06:32:53.441Z,102461.81
2023-02-12T06:33:55.514Z,102459.22
2023-02-12T06:34:56.972Z,102448.06
2023-02-12T06:35:58.564Z,102460.94
2023-02-12T06:37:00.133Z,102462.00
2023-02-12T06:38:01.696Z,102455.38
2023-02-12T06:39:03.373Z,102450.88
2023-02-12T06:40:05.159Z,102448.28
2023-02-12T06:41:06.654Z,102460.28
2023-02-12T06:42:08.129Z,102462.00
2023-02-12T06:43:09.609Z,102461.34
2023-02-12T06:44:11.508Z,102455.78
2023-02-12T06:45:12.966Z,102464.16
2023-02-12T06:46:14.511Z,102465.88
2023-02-12T06:47:16.090Z,102469.72
2023-02-12T06:48:17.566Z,102464.16
2023-02-12T06:49:19.123Z,102470.56
2023-02-12T06:50:20.630Z,102473.56
2023-02-12T06:51:23.479Z,102479.16
2023-02-12T06:52:25.005Z,102477.22
2023-02-12T06:53:26.511Z,102471.84
2023-02-12T06:54:28.005Z,102471.00
2023-02-12T06:55:29.461Z,102480.22
2023-02-12T06:56:31.021Z,102471.00
2023-02-12T06:57:32.557Z,102472.91
2023-02-12T06:58:34.078Z,102482.13
2023-02-12T06:59:35.603Z,102481.28
2023-02-12T07:00:37.124Z,102476.56
2023-02-12T07:01:38.609Z,102472.06
2023-02-12T07:02:40.136Z,102476.56
2023-02-12T07:03:42.013Z,102484.06
2023-02-12T07:04:43.586Z,102482.13
2023-02-12T07:05:46.155Z,102488.56
2023-02-12T07:06:47.603Z,102483.00
2023-02-12T07:07:49.235Z,102492.22
2023-02-12T07:08:50.776Z,102489.63
2023-02-12T07:09:52.248Z,102494.16
2023-02-12T07:10:53.704Z,102492.22
2023-02-12T07:11:56.846Z,102498.66
2023-02-12T07:12:58.276Z,102492.00
2023-02-12T07:13:59.904Z,102497.56
2023-02-12T07:15:01.440Z,102497.56
2023-02-12T07:16:03.642Z,102502.28
2023-02-12T07:17:05.541Z,102498.66
2023-02-12T07:18:07.075Z,102503.16
2023-02-12T07:19:09.335Z,102504.22
2023-02-12T07:20:11.060Z,102502.28
2023-02-12T07:21:12.819Z,102501.44
2023-02-12T07:22:14.287Z,102498.66
2023-02-12T07:23:15.749Z,102505.94
2023-02-12T07:24:18.257Z,102506.16
2023-02-12T07:25:19.824Z,102509.78
2023-02-12T07:26:21.481Z,102505.06
2023-02-12T07:27:22.943Z,102506.16
2023-02-12T07:28:24.469Z,102506.16
2023-02-12T07:29:26.000Z,102506.16
2023-02-12T07:30:27.569Z,102504.22
2023-02-12T07:31:29.379Z,102512.56
2023-02-12T07:32:32.110Z,102507.00
2023-02-12T07:33:33.549Z,102503.16
2023-02-12T07:34:35.014Z,102493.22
2023-02-12T07:35:36.521Z,102508.72
2023-02-12T07:36:38.315Z,102511.50
2023-02-12T07:37:39.820Z,102516.00
2023-02-12T07:38:41.345Z,102505.94
2023-02-12T07:39:42.798Z,102502.09
2023-02-12T07:40:44.299Z,102508.72
2023-02-12T07:41:45.777Z,102513.03
2023-02-12T07:42:49.989Z,102506.59
2023-02-12T07:43:55.873Z,102508.31
2023-02-12T07:44:57.338Z,102510.03
2023-02-12T07:46:05.853Z,102511.09
2023-02-12T07:47:07.410Z,102512.59
2023-02-12T07:48:08.912Z,102507.91
2023-02-12T07:49:17.712Z,102506.16
2023-02-12T07:50:19.231Z,102507.91
2023-02-12T07:51:20.753Z,102508.78
2023-02-12T07:52:22.240Z,102509.63
2023-02-12T07:53:23.812Z,102513.06
2023-02-12T07:54:25.344Z,102513.06
2023-02-12T07:55:26.892Z,102518.66
2023-02-12T07:56:32.716Z,102513.94
2023-02-12T07:57:36.999Z,102513.94
2023-02-12T07:58:38.556Z,102515.84
2023-02-12T07:59:39.996Z,102515.66
2023-02-12T08:00:41.505Z,102510.94
2023-02-12T08:01:43.898Z,102517.16
2023-02-12T08:02:50.840Z,102525.53
2023-02-12T08:03:52.420Z,102519.94
2023-02-12T08:04:57.114Z,102527.25
2023-02-12T08:05:58.596Z,102522.72
2023-02-12T08:07:00.097Z,102525.53
2023-02-12T08:08:01.555Z,102530.88
2023-02-12T08:09:03.821Z,102519.72
2023-02-12T08:10:05.584Z,102526.16
2023-02-12T08:11:07.826Z,102521.25
2023-02-12T08:12:09.353Z,102520.38
2023-02-12T08:13:10.809Z,102529.59
2023-02-12T08:14:12.825Z,102531.31
2023-02-12T08:15:14.263Z,102526.63
2023-02-12T08:16:16.708Z,102524.72
2023-02-12T08:17:18.269Z,102529.59
2023-02-12T08:18:19.750Z,102531.16
2023-02-12T08:19:25.727Z,102531.16
2023-02-12T08:20:27.783Z,102525.38
2023-02-12T08:21:29.341Z,102528.16
2023-02-12T08:22:30.816Z,102531.16
2023-02-12T08:23:32.348Z,102528.16
2023-02-12T08:24:33.790Z,102538.66
2023-02-12T08:25:35.256Z,102533.72
2023-02-12T08:26:37.521Z,102533.72
2023-02-12T08:27:41.034Z,102532.66
2023-02-12T08:28:43.443Z,102536.31
2023-02-12T08:29:44.884Z,102528.78
2023-02-12T08:30:46.455Z,102538.88
2023-02-12T08:31:48.612Z,102526.88
2023-02-12T08:32:50.255Z,102541.66
2023-02-12T08:33:52.253Z,102537.81
2023-02-12T08:34:53.778Z,102537.81
2023-02-12T08:36:11.432Z,102542.31
2023-02-12T08:37:13.014Z,102548.75
2023-02-12T08:38:14.566Z,102546.81
2023-02-12T08:39:16.335Z,102542.09
2023-02-12T08:40:17.929Z,102542.97
2023-02-12T08:41:23.414Z,102550.25
2023-02-12T08:42:25.714Z,102548.31
2023-02-12T08:43:27.245Z,102541.69
2023-02-12T08:44:28.947Z,102539.78
2023-02-12T08:45:30.468Z,102541.50
2023-02-12T08:46:32.763Z,102543.22
2023-02-12T08:47:34.322Z,102542.16
2023-02-12T08:48:35.919Z,102537.44
2023-02-12T08:49:37.401Z,102541.09
2023-02-12T08:50:39.076Z,102542.81
2023-02-12T08:51:41.496Z,102545.38
2023-02-12T08:52:44.006Z,102543.44
2023-02-12T08:53:46.273Z,102541.53
2023-02-12T08:54:47.762Z,102542.38
2023-02-12T08:55:49.797Z,102548.81
2023-02-12T08:56:51.730Z,102542.38
2023-02-12T08:57:57.804Z,102543.25
2023-02-12T08:58:59.383Z,102549.88
2023-02-12T09:00:00.844Z,102547.75
2023-02-12T09:01:02.582Z,102548.81
2023-02-12T09:02:08.631Z,102546.88
2023-02-12T09:03:10.170Z,102547.97
2023-02-12T09:04:13.337Z,102539.59
2023-02-12T09:05:14.855Z,102541.31
2023-02-12T09:06:16.740Z,102545.16
2023-02-12T09:07:18.182Z,102549.69
2023-02-12T09:08:19.685Z,102547.53
2023-02-12T09:09:21.156Z,102547.53
2023-02-12T09:10:22.638Z,102549.25
2023-02-12T09:11:30.388Z,102551.00
2023-02-12T09:12:31.881Z,102546.06
2023-02-12T09:13:33.370Z,102550.59
2023-02-12T09:14:34.869Z,102539.44
2023-02-12T09:15:37.172Z,102557.66
2023-02-12T09:16:40.340Z,102548.44
2023-02-12T09:17:43.668Z,102542.88
2023-02-12T09:18:45.276Z,102548.44
2023-02-12T09:19:46.818Z,102552.94
2023-02-12T09:20:48.330Z,102549.09
2023-02-12T09:21:55.558Z,102550.16
2023-02-12T09:23:00.427Z,102549.94
2023-02-12T09:24:03.464Z,102554.88
2023-02-12T09:25:05.622Z,102546.31
2023-02-12T09:26:07.551Z,102548.88
2023-02-12T09:27:09.020Z,102553.19
2023-02-12T09:28:10.759Z,102551.94
2023-02-12T09:29:12.282Z,102548.94
2023-02-12T09:30:13.885Z,102555.16
2023-02-12T09:31:16.412Z,102561.16
2023-02-12T09:32:18.020Z,102549.16
2023-02-12T09:33:19.544Z,102551.72
2023-02-12T09:34:21.047Z,102551.50
2023-02-12T09:35:23.086Z,102552.38
2023-02-12T09:36:24.593Z,102547.66
2023-02-12T09:37:26.087Z,102547.47
2023-02-12T09:38:27.539Z,102550.06
2023-02-12T09:39:30.715Z,102545.13
2023-02-12T09:40:37.408Z,102548.75
2023-02-12T09:41:45.048Z,102544.69
2023-02-12T09:42:46.480Z,102547.69
2023-02-12T09:43:47.942Z,102549.19
2023-02-12T09:45:02.561Z,102552.63
2023-02-12T09:46:24.402Z,102550.53
2023-02-12T09:47:27.501Z,102547.31
2023-02-12T09:48:35.494Z,102550.75
2023-02-12T09:49:39.558Z,102556.09
2023-02-12T09:50:54.054Z,102555.88
2023-02-12T09:51:55.489Z,102555.69
2023-02-12T09:52:59.157Z,102561.03
2023-02-12T09:54:02.129Z,102555.47
2023-02-12T09:55:03.663Z,102533.34
2023-02-12T09:56:12.719Z,102553.34
2023-02-12T09:57:22.951Z,102559.38
2023-02-12T09:58:35.512Z,102556.78
2023-02-12T09:59:41.633Z,102558.28
2023-02-12T10:00:44.556Z,102563.66
2023-02-12T10:01:46.104Z,102555.94
2023-02-12T10:02:47.654Z,102544.75
2023-02-12T10:03:50.305Z,102558.28
2023-02-12T10:05:01.110Z,102560.03
2023-02-12T10:06:04.480Z,102560.91
2023-02-12T10:07:08.944Z,102557.91
2023-02-12T10:08:15.993Z,102563.25
2023-02-12T10:09:23.562Z,102555.53
2023-02-12T10:10:25.006Z,102556.38
2023-02-12T10:11:45.334Z,102558.97
2023-02-12T10:12:46.816Z,102557.25
2023-02-12T10:13:48.314Z,102561.97
2023-02-12T10:15:01.815Z,102550.81
2023-02-12T10:16:15.351Z,102554.25
2023-02-12T10:17:35.309Z,102554.03
2023-02-12T10:18:47.247Z,102560.47
2023-02-12T10:19:49.154Z,102551.22
2023-02-12T10:21:09.424Z,102552.09
2023-02-12T10:22:13.805Z,102552.94
2023-02-12T10:23:25.220Z,102557.28
2023-02-12T10:24:26.719Z,102557.28
2023-02-12T10:25:40.517Z,102556.19
2023-02-12T10:26:51.386Z,102555.13
2023-02-12T10:27:54.089Z,102552.97
2023-02-12T10:28:55.728Z,102551.91
2023-02-12T10:29:59.138Z,102559.00
2023-02-12T10:31:00.692Z,102545.88
2023-02-12T10:32:04.936Z,102553.84
2023-02-12T10:33:07.265Z,102560.09
2023-02-12T10:34:14.372Z,102547.84
2023-02-12T10:35:16.493Z,102547.84
2023-02-12T10:36:17.981Z,102543.97
2023-02-12T10:37:40.095Z,102547.63
2023-02-12T10:38:42.664Z,102545.47
2023-02-12T10:39:47.902Z,102549.13
2023-02-12T10:40:50.438Z,102548.06
2023-02-12T10:42:11.843Z,102552.56
2023-02-12T10:43:13.381Z,102547.66
2023-02-12T10:44:14.836Z,102540.13
2023-02-12T10:45:17.469Z,102539.06
2023-02-12T10:46:19.100Z,102538.88
2023-02-12T10:47:21.590Z,102538.66
2023-02-12T10:48:24.733Z,102535.44
2023-02-12T10:49:26.480Z,102532.41
2023-02-12T10:50:36.981Z,102529.41
2023-02-12T10:51:41.245Z,102531.97
2023-02-12T10:52:47.321Z,102534.78
2023-02-12T10:53:49.471Z,102529.81
2023-02-12T10:54:50.922Z,102532.44
2023-02-12T10:56:18.856Z,102531.13
2023-02-12T10:57:26.585Z,102533.72
2023-02-12T10:58:28.111Z,102533.47
2023-02-12T10:59:29.683Z,102526.81
2023-02-12T11:00:32.161Z,102526.59
2023-02-12T11:01:34.386Z,102529.41
2023-02-12T11:02:36.146Z,102531.97
2023-02-12T11:03:39.841Z,102521.66
2023-02-12T11:04:41.338Z,102516.94
2023-02-12T11:05:43.200Z,102514.81
2023-02-12T11:06:57.367Z,102523.81
2023-02-12T11:07:58.806Z,102522.75
2023-02-12T11:09:00.417Z,102515.00
2023-02-12T11:10:01.960Z,102519.50
2023-02-12T11:11:04.416Z,102510.91
2023-02-12T11:12:06.110Z,102520.78
2023-02-12T11:13:21.424Z,102506.59
2023-02-12T11:14:22.995Z,102504.47
2023-02-12T11:15:24.979Z,102504.47
2023-02-12T11:16:27.470Z,102507.91
2023-02-12T11:17:29.828Z,102511.31
2023-02-12T11:18:34.831Z,102501.00
2023-02-12T11:19:36.394Z,102500.78
2023-02-12T11:20:39.144Z,102500.56
2023-02-12T11:21:40.645Z,102507.88
2023-02-12T11:23:01.316Z,102502.91
2023-02-12T11:24:21.056Z,102499.72
2023-02-12T11:25:23.032Z,102498.63
2023-02-12T11:26:25.630Z,102498.41
2023-02-12T11:27:28.777Z,102501.84
2023-02-12T11:28:30.756Z,102490.44
2023-02-12T11:29:33.688Z,102488.50
2023-02-12T11:30:35.236Z,102489.97
2023-02-12T11:31:37.495Z,102495.38
2023-02-12T11:32:39.120Z,102497.97
2023-02-12T11:33:40.616Z,102493.22
2023-02-12T11:34:42.079Z,102488.50
2023-02-12T11:36:06.769Z,102474.75
2023-02-12T11:37:18.498Z,102487.19
2023-02-12T11:38:49.070Z,102482.00
2023-02-12T11:39:50.560Z,102488.44
2023-02-12T11:40:53.854Z,102486.50
2023-02-12T11:41:56.434Z,102490.16
2023-02-12T11:42:58.502Z,102483.31
2023-02-12T11:44:00.182Z,102483.31
2023-02-12T11:45:01.690Z,102487.81
2023-02-12T11:46:03.345Z,102486.28
2023-02-12T11:47:08.944Z,102485.19
2023-02-12T11:48:20.481Z,102490.78
2023-02-12T11:49:23.680Z,102488.63
2023-02-12T11:50:26.550Z,102481.94
2023-02-12T11:51:29.447Z,102481.72
2023-02-12T11:52:34.115Z,102477.84
2023-02-12T11:53:37.011Z,102477.66
2023-02-12T11:54:42.073Z,102472.91
2023-02-12T11:55:43.594Z,102474.41
2023-02-12T11:56:45.605Z,102467.72
2023-02-12T11:57:48.055Z,102469.44
2023-02-12T11:58:50.024Z,102461.69
2023-02-12T11:59:51.568Z,102469.00
2023-02-12T12:00:54.639Z,102466.19
2023-02-12T12:01:56.252Z,102466.81
2023-02-12T12:03:00.620Z,102466.81
2023-02-12T12:04:06.754Z,102464.69
2023-02-12T12:05:09.843Z,102465.31
2023-02-12T12:06:22.944Z,102465.97
2023-02-12T12:07:25.753Z,102465.97
2023-02-12T12:08:28.920Z,102473.25